Time;durP1;ratioP1;P1;durP2;ratioP2;P2;SDS_P1;SDS_P2;PMS_P1;PMS_P2;Temp;Humidity;BMP_temperature;BMP_pressure;BME280_temperature;BME280_humidity;BME280_pressure;Samples;Min_cycle;Max_cycle;Signal;HPM_P1;HPM_P2
2021/03/19 00:00:13;;;;;;;4.57;3.17;;;5.80;70.50;;;;;;5098437;28;20032;-71
2021/03/19 00:02:39;;;;;;;3.70;3.33;;;5.80;70.50;;;;;;5092551;28;20036;-72
2021/03/19 00:05:11;;;;;;;4.35;3.83;;;5.80;70.50;;;;;;5074368;28;20496;-71
2021/03/19 00:07:41;;;;;;;4.10;3.63;;;5.70;70.50;;;;;;5097106;28;20036;-71
2021/03/19 00:10:09;;;;;;;3.47;3.10;;;5.70;70.50;;;;;;5081128;28;20072;-72
2021/03/19 00:12:35;;;;;;;6.40;3.60;;;5.70;70.40;;;;;;5092507;28;20032;-72
2021/03/19 00:15:01;;;;;;;3.38;3.08;;;5.70;70.40;;;;;;5108668;28;20433;-72
2021/03/19 00:17:26;;;;;;;3.92;3.50;;;5.70;70.30;;;;;;5095285;28;20063;-73
2021/03/19 00:19:52;;;;;;;4.00;3.58;;;5.70;70.20;;;;;;5083325;28;20033;-70
2021/03/19 00:22:18;;;;;;;4.32;3.35;;;5.70;70.20;;;;;;5092593;28;20039;-72
2021/03/19 00:24:44;;;;;;;4.45;3.60;;;5.70;70.10;;;;;;5092330;28;20177;-71
2021/03/19 00:27:10;;;;;;;3.65;3.17;;;5.70;70.10;;;;;;5094983;28;20036;-72
2021/03/19 00:29:36;;;;;;;3.20;2.90;;;5.70;70.10;;;;;;5102117;28;20038;-73
2021/03/19 00:32:02;;;;;;;3.28;2.97;;;5.70;70.00;;;;;;5095423;28;20036;-71
2021/03/19 00:34:28;;;;;;;5.03;3.63;;;5.70;70.10;;;;;;5097013;28;20032;-71
2021/03/19 00:36:54;;;;;;;3.85;3.45;;;5.70;70.00;;;;;;5079574;28;20097;-72
2021/03/19 00:39:20;;;;;;;4.25;3.67;;;5.60;69.90;;;;;;5106070;28;20115;-71
2021/03/19 00:41:46;;;;;;;3.50;2.92;;;5.60;69.90;;;;;;5078044;28;20097;-71
2021/03/19 00:44:12;;;;;;;4.22;3.63;;;5.60;69.80;;;;;;5077424;28;20051;-72
2021/03/19 00:46:38;;;;;;;3.88;3.42;;;5.60;69.80;;;;;;5096372;28;20065;-71
2021/03/19 00:49:04;;;;;;;3.65;3.35;;;5.60;69.90;;;;;;5107427;28;20036;-72
2021/03/19 00:51:30;;;;;;;4.18;3.70;;;5.60;69.80;;;;;;5098601;28;20031;-72
2021/03/19 00:53:56;;;;;;;4.85;3.63;;;5.60;69.80;;;;;;5095940;28;20504;-72
2021/03/19 00:56:22;;;;;;;4.45;3.63;;;5.60;69.90;;;;;;5096025;28;20032;-72
2021/03/19 00:58:48;;;;;;;3.97;3.58;;;5.50;69.80;;;;;;5102579;28;20063;-71
2021/03/19 01:01:13;;;;;;;5.15;3.60;;;5.50;69.80;;;;;;5100082;28;20032;-72
2021/03/19 01:03:39;;;;;;;3.75;3.38;;;5.50;69.80;;;;;;5077620;28;20028;-71
2021/03/19 01:06:06;;;;;;;3.53;3.20;;;5.50;69.80;;;;;;5095730;28;20032;-72
2021/03/19 01:08:32;;;;;;;4.22;3.75;;;5.50;69.80;;;;;;5100084;28;20048;-71
2021/03/19 01:10:58;;;;;;;3.92;3.53;;;5.50;69.90;;;;;;5084675;28;20042;-72
2021/03/19 01:13:26;;;;;;;4.70;4.10;;;5.50;69.80;;;;;;5095686;28;20036;-71
2021/03/19 01:15:52;;;;;;;4.22;3.60;;;5.50;69.90;;;;;;5095475;28;20040;-71
2021/03/19 01:18:22;;;;;;;3.78;3.33;;;5.50;69.90;;;;;;5097771;28;20039;-72
2021/03/19 01:20:49;;;;;;;3.90;3.50;;;5.50;69.90;;;;;;5107048;28;20071;-71
2021/03/19 01:23:16;;;;;;;5.00;3.60;;;5.50;69.80;;;;;;5080619;28;20084;-71
2021/03/19 01:25:43;;;;;;;3.50;3.20;;;5.50;69.70;;;;;;5080814;28;20402;-71
2021/03/19 01:28:09;;;;;;;3.72;3.42;;;5.50;69.60;;;;;;5110973;28;20040;-72
2021/03/19 01:30:39;;;;;;;4.30;3.40;;;5.50;69.60;;;;;;5103766;28;20105;-72
2021/03/19 01:33:05;;;;;;;4.03;3.40;;;5.40;69.50;;;;;;5077489;28;20449;-72
2021/03/19 01:35:33;;;;;;;3.85;3.55;;;5.40;69.40;;;;;;5095125;28;20028;-72
2021/03/19 01:38:00;;;;;;;3.53;3.22;;;5.40;69.40;;;;;;5097515;27;20039;-72
2021/03/19 01:40:31;;;;;;;3.88;3.47;;;5.40;69.50;;;;;;5104194;28;20036;-71
2021/03/19 01:43:02;;;;;;;4.32;3.90;;;5.40;69.60;;;;;;5095208;28;20035;-71
2021/03/19 01:45:55;;;;;;;3.88;3.55;;;5.30;69.50;;;;;;5076812;28;20063;-72
2021/03/19 01:48:59;;;;;;;3.83;3.42;;;5.40;69.50;;;;;;5080158;27;20032;-71
2021/03/19 01:52:02;;;;;;;2.97;2.78;;;5.40;69.40;;;;;;5103747;28;20047;-71
2021/03/19 01:55:05;;;;;;;3.45;3.15;;;5.30;69.30;;;;;;5095062;28;20492;-71
2021/03/19 01:58:09;;;;;;;3.50;3.20;;;5.30;69.30;;;;;;5094548;28;20557;-72
2021/03/19 02:01:12;;;;;;;3.45;3.15;;;5.30;69.20;;;;;;5096651;28;20055;-71
2021/03/19 02:04:15;;;;;;;3.22;2.92;;;5.30;69.20;;;;;;5114655;28;20027;-71
2021/03/19 02:07:19;;;;;;;3.90;3.17;;;5.30;69.10;;;;;;5097082;28;20450;-70
2021/03/19 02:10:22;;;;;;;3.45;3.15;;;5.20;69.20;;;;;;5108842;28;20035;-71
2021/03/19 02:13:25;;;;;;;2.90;2.53;;;5.30;69.30;;;;;;5094514;28;20028;-71
2021/03/19 02:16:29;;;;;;;3.67;3.13;;;5.20;69.20;;;;;;5094438;28;20072;-72
2021/03/19 02:19:32;;;;;;;3.42;3.13;;;5.20;69.30;;;;;;5096826;28;20131;-72
2021/03/19 02:22:35;;;;;;;3.22;2.90;;;5.20;69.20;;;;;;5109162;28;20028;-71
2021/03/19 02:25:38;;;;;;;3.85;3.10;;;5.20;69.20;;;;;;5114563;28;20126;-71
2021/03/19 02:28:42;;;;;;;3.90;3.47;;;5.20;69.30;;;;;;5113846;28;20506;-73
2021/03/19 02:31:11;;;;;;;3.83;3.50;;;5.20;69.30;;;;;;5102764;28;20123;-72
2021/03/19 02:33:50;;;;;;;3.65;3.35;;;5.20;69.30;;;;;;5093946;28;20024;-73
2021/03/19 02:36:19;;;;;;;3.95;3.55;;;5.20;69.40;;;;;;5093722;28;20032;-72
2021/03/19 02:38:45;;;;;;;3.25;3.00;;;5.20;69.40;;;;;;5078473;28;20035;-72
2021/03/19 02:41:11;;;;;;;3.42;2.92;;;5.20;69.30;;;;;;5103049;28;20047;-72
2021/03/19 02:43:37;;;;;;;2.97;2.67;;;5.10;69.30;;;;;;5093681;28;20059;-73
2021/03/19 02:46:04;;;;;;;4.05;3.60;;;5.10;69.30;;;;;;5093277;28;20042;-72
2021/03/19 02:48:29;;;;;;;3.78;3.47;;;5.10;69.30;;;;;;5076854;28;20519;-71
2021/03/19 02:50:55;;;;;;;3.25;2.95;;;5.10;69.20;;;;;;5105403;28;20031;-73
2021/03/19 02:53:26;;;;;;;3.40;3.10;;;5.10;69.20;;;;;;5095377;28;20039;-72
2021/03/19 02:55:52;;;;;;;3.80;3.08;;;5.10;69.20;;;;;;5093461;28;20040;-72
2021/03/19 02:58:18;;;;;;;5.00;3.55;;;5.10;69.10;;;;;;5093254;28;20032;-72
2021/03/19 03:00:45;;;;;;;3.58;2.88;;;5.10;69.00;;;;;;5100900;27;20558;-72
2021/03/19 03:03:11;;;;;;;3.83;3.38;;;5.10;69.00;;;;;;5096990;28;20123;-72
2021/03/19 03:05:37;;;;;;;3.58;3.28;;;5.10;68.90;;;;;;5093320;28;20131;-72
2021/03/19 03:08:04;;;;;;;4.63;3.20;;;5.10;68.90;;;;;;5093494;28;20516;-72
2021/03/19 03:10:32;;;;;;;3.45;3.10;;;5.00;68.90;;;;;;5095666;28;20035;-72
2021/03/19 03:12:58;;;;;;;3.35;3.05;;;5.00;68.90;;;;;;5086982;28;20079;-71
2021/03/19 03:15:24;;;;;;;3.83;3.38;;;5.00;69.00;;;;;;5104141;28;20484;-72
2021/03/19 03:17:50;;;;;;;3.28;2.97;;;5.00;69.00;;;;;;5103666;28;20039;-72
2021/03/19 03:20:25;;;;;;;3.95;3.30;;;5.00;69.00;;;;;;5096590;28;20032;-73
2021/03/19 03:22:51;;;;;;;3.60;3.30;;;5.00;69.00;;;;;;5092312;28;20039;-73
2021/03/19 03:25:18;;;;;;;3.55;3.25;;;5.00;68.90;;;;;;5093109;28;20078;-73
2021/03/19 03:27:45;;;;;;;3.13;2.85;;;5.00;68.90;;;;;;5102070;28;20093;-71
2021/03/19 03:30:23;;;;;;;3.72;3.30;;;5.00;69.00;;;;;;5105288;28;20059;-74
2021/03/19 03:32:49;;;;;;;4.00;3.20;;;5.00;69.00;;;;;;5091680;28;20484;-73
2021/03/19 03:35:17;;;;;;;3.67;3.10;;;5.00;68.90;;;;;;5092776;28;20032;-75
2021/03/19 03:37:44;;;;;;;3.55;3.20;;;5.00;69.00;;;;;;5101742;28;20118;-79
2021/03/19 03:40:13;;;;;;;3.33;3.03;;;5.00;69.00;;;;;;5097904;28;20053;-77
2021/03/19 03:42:40;;;;;;;4.35;3.47;;;5.00;69.00;;;;;;5092882;28;20043;-78
2021/03/19 03:45:07;;;;;;;4.25;3.10;;;5.00;68.90;;;;;;5092338;28;20097;-75
2021/03/19 03:47:33;;;;;;;3.25;2.88;;;5.00;69.00;;;;;;5108389;28;20508;-76
2021/03/19 03:50:00;;;;;;;3.35;3.03;;;5.00;69.00;;;;;;5092603;28;20090;-76
2021/03/19 03:52:26;;;;;;;2.78;2.58;;;5.00;69.00;;;;;;5092693;28;20085;-78
2021/03/19 03:54:51;;;;;;;3.30;3.00;;;5.00;69.00;;;;;;5092543;28;20040;-76
2021/03/19 03:57:17;;;;;;;3.38;3.08;;;5.00;69.00;;;;;;5074723;28;20078;-78
2021/03/19 03:59:43;;;;;;;3.85;3.15;;;5.00;69.00;;;;;;5093061;28;20036;-79
2021/03/19 04:02:21;;;;;;;3.33;3.03;;;5.10;69.00;;;;;;5074240;28;20031;-81
2021/03/19 04:04:49;;;;;;;5.35;3.60;;;5.10;69.00;;;;;;5105333;28;20044;-78
2021/03/19 04:07:16;;;;;;;3.85;2.90;;;5.00;68.90;;;;;;5090504;28;20040;-76
2021/03/19 04:09:42;;;;;;;5.10;3.28;;;5.10;68.90;;;;;;5106261;28;20031;-77
2021/03/19 04:12:10;;;;;;;3.75;3.45;;;5.00;68.80;;;;;;5100367;28;20111;-77
2021/03/19 04:14:37;;;;;;;3.88;3.33;;;5.10;68.80;;;;;;5096409;28;20040;-75
2021/03/19 04:17:09;;;;;;;3.92;3.45;;;5.10;68.80;;;;;;5112296;28;20028;-77
2021/03/19 04:19:35;;;;;;;3.60;3.22;;;5.10;68.80;;;;;;5097199;27;20098;-78
2021/03/19 04:22:02;;;;;;;3.85;3.45;;;5.10;68.70;;;;;;5088115;28;20384;-77
2021/03/19 04:24:28;;;;;;;3.60;3.30;;;5.10;68.60;;;;;;5116823;28;20051;-79
2021/03/19 04:26:54;;;;;;;5.05;3.30;;;5.20;68.70;;;;;;5116871;28;20114;-77
2021/03/19 04:29:20;;;;;;;3.60;3.30;;;5.20;68.60;;;;;;5117275;28;20032;-77
2021/03/19 04:31:47;;;;;;;3.67;3.22;;;5.20;68.50;;;;;;5116543;28;20032;-75
2021/03/19 04:34:13;;;;;;;4.97;3.80;;;5.20;68.50;;;;;;5116337;28;20058;-83
2021/03/19 04:36:46;;;;;;;5.70;3.88;;;5.30;68.60;;;;;;5114541;28;20038;-79
2021/03/19 04:39:19;;;;;;;5.22;4.22;;;5.30;68.50;;;;;;5108975;28;20127;-79
2021/03/19 04:41:50;;;;;;;4.20;3.80;;;5.30;68.40;;;;;;5113060;28;20119;-78
2021/03/19 04:44:17;;;;;;;4.72;3.72;;;5.40;68.40;;;;;;5085590;28;20141;-79
2021/03/19 04:46:43;;;;;;;4.10;3.70;;;5.40;68.30;;;;;;5094139;28;20404;-79
2021/03/19 04:49:09;;;;;;;4.97;3.78;;;5.40;68.20;;;;;;5093948;28;20028;-80
2021/03/19 04:51:35;;;;;;;4.25;3.85;;;5.40;68.10;;;;;;5096008;28;20048;-80
2021/03/19 04:54:01;;;;;;;4.80;4.15;;;5.40;68.10;;;;;;5095989;28;20453;-81
2021/03/19 04:56:27;;;;;;;4.60;3.80;;;5.50;68.10;;;;;;5095647;28;20385;-81
2021/03/19 04:58:54;;;;;;;8.10;4.10;;;5.40;67.90;;;;;;5112708;28;20046;-81
2021/03/19 05:01:20;;;;;;;6.13;4.38;;;5.50;67.90;;;;;;5113454;28;20031;-81
2021/03/19 05:03:47;;;;;;;5.30;4.03;;;5.50;67.80;;;;;;5095527;28;20456;-80
2021/03/19 05:06:13;;;;;;;4.45;3.90;;;5.50;67.90;;;;;;5095761;28;20126;-81
2021/03/19 05:08:40;;;;;;;5.07;3.97;;;5.60;67.90;;;;;;5111379;28;20058;-77
2021/03/19 05:11:07;;;;;;;4.32;3.92;;;5.60;67.80;;;;;;5095427;28;20412;-76
2021/03/19 05:13:33;;;;;;;4.55;4.07;;;5.60;67.60;;;;;;5111308;28;20051;-80
2021/03/19 05:15:59;;;;;;;6.18;4.70;;;5.60;67.50;;;;;;5096352;28;20517;-78
2021/03/19 05:18:25;;;;;;;5.10;4.38;;;5.70;67.50;;;;;;5095428;28;20051;-76
2021/03/19 05:20:51;;;;;;;4.45;4.05;;;5.70;67.30;;;;;;5095877;28;20071;-75
2021/03/19 05:23:21;;;;;;;5.68;4.20;;;5.80;67.10;;;;;;5077292;28;20104;-81
2021/03/19 05:25:47;;;;;;;7.18;4.32;;;5.80;67.20;;;;;;5095417;28;20057;-79
2021/03/19 05:28:14;;;;;;;5.28;4.13;;;5.80;67.00;;;;;;5095255;28;20032;-76
2021/03/19 05:30:40;;;;;;;4.75;4.28;;;5.90;66.80;;;;;;5094872;28;20032;-80
2021/03/19 05:33:06;;;;;;;4.45;3.97;;;5.90;66.70;;;;;;5094541;28;20036;-76
2021/03/19 05:35:33;;;;;;;4.65;3.70;;;5.90;66.50;;;;;;5094809;28;20036;-76
2021/03/19 05:37:59;;;;;;;4.30;3.90;;;5.60;67.60;;;;;;5094673;28;20039;-73
2021/03/19 05:40:39;;;;;;;3.90;3.55;;;5.60;69.40;;;;;;5094705;28;20040;-77
2021/03/19 05:43:43;;;;;;;5.10;3.40;;;5.70;70.90;;;;;;5095341;28;20036;-77
2021/03/19 05:46:37;;;;;;;3.75;3.03;;;5.80;72.50;;;;;;5081677;28;20128;-76
2021/03/19 05:49:11;;;;;;;3.75;3.38;;;5.90;73.10;;;;;;5090349;28;20048;-75
2021/03/19 05:51:38;;;;;;;3.80;3.20;;;6.10;73.10;;;;;;5094480;28;20036;-75
2021/03/19 05:54:29;;;;;;;3.75;2.97;;;6.20;73.50;;;;;;5094173;28;20142;-75
2021/03/19 05:57:04;;;;;;;4.22;3.30;;;6.30;73.80;;;;;;5076374;28;20039;-76
2021/03/19 05:59:31;;;;;;;5.30;4.40;;;6.30;73.10;;;;;;5094383;28;20038;-75
2021/03/19 06:01:58;;;;;;;5.30;3.85;;;6.50;72.50;;;;;;5094198;28;20038;-74
2021/03/19 06:04:28;;;;;;;4.32;3.33;;;6.60;72.00;;;;;;5076139;28;20040;-75
2021/03/19 06:06:59;;;;;;;3.45;3.15;;;6.80;71.40;;;;;;5094064;28;20032;-76
2021/03/19 06:09:28;;;;;;;6.40;3.40;;;6.90;71.10;;;;;;5094493;28;20048;-73
2021/03/19 06:11:58;;;;;;;4.55;3.00;;;7.00;70.10;;;;;;5094496;28;20047;-72
2021/03/19 06:14:26;;;;;;;3.58;3.28;;;7.20;68.50;;;;;;5094428;28;20135;-71
2021/03/19 06:17:07;;;;;;;2.90;2.67;;;7.20;66.50;;;;;;5094076;28;20109;-76
2021/03/19 06:19:42;;;;;;;3.10;2.80;;;7.20;66.60;;;;;;5095659;28;20036;-79
2021/03/19 06:22:22;;;;;;;2.92;2.60;;;7.20;65.10;;;;;;5095105;28;20034;-78
2021/03/19 06:25:37;;;;;;;4.13;2.95;;;7.20;64.60;;;;;;5094121;28;20160;-77
2021/03/19 06:28:22;;;;;;;3.58;2.88;;;7.10;63.80;;;;;;5066282;28;20040;-74
2021/03/19 06:30:48;;;;;;;2.72;2.53;;;7.20;64.30;;;;;;5094157;28;20488;-74
2021/03/19 06:33:14;;;;;;;2.95;2.65;;;7.20;63.70;;;;;;5093926;28;20035;-74
2021/03/19 06:36:06;;;;;;;2.42;2.22;;;7.20;63.50;;;;;;5093698;28;20032;-76
2021/03/19 06:38:39;;;;;;;3.83;2.67;;;7.20;63.30;;;;;;5093568;28;20089;-78
2021/03/19 06:41:25;;;;;;;3.10;2.47;;;7.30;63.00;;;;;;5093887;28;20047;-74
2021/03/19 06:43:53;;;;;;;2.88;2.67;;;7.30;62.90;;;;;;5093456;28;20411;-72
2021/03/19 06:46:46;;;;;;;2.88;2.67;;;7.40;62.90;;;;;;5093637;28;20550;-76
2021/03/19 06:49:12;;;;;;;3.15;2.85;;;7.40;62.90;;;;;;5088275;28;20063;-76
2021/03/19 06:51:53;;;;;;;5.25;2.92;;;7.40;62.20;;;;;;5093248;28;20051;-76
2021/03/19 06:54:50;;;;;;;3.10;2.80;;;7.40;62.20;;;;;;5093418;28;20415;-76
2021/03/19 06:57:19;;;;;;;3.30;3.00;;;7.40;61.90;;;;;;5093469;28;20138;-71
2021/03/19 06:59:53;;;;;;;3.85;2.80;;;7.40;61.80;;;;;;5109024;28;20120;-79
2021/03/19 07:02:31;;;;;;;3.33;3.00;;;7.40;62.40;;;;;;5108874;28;20506;-73
2021/03/19 07:05:10;;;;;;;3.05;2.75;;;7.40;62.10;;;;;;5093237;28;20373;-74
2021/03/19 07:08:16;;;;;;;3.28;2.97;;;7.50;62.00;;;;;;5085942;28;20411;-74
2021/03/19 07:10:45;;;;;;;3.50;3.17;;;7.60;61.60;;;;;;5112256;28;20046;-73
2021/03/19 07:13:56;;;;;;;3.90;2.80;;;7.60;61.00;;;;;;5095073;28;20036;-75
2021/03/19 07:16:43;;;;;;;3.30;3.00;;;7.60;61.20;;;;;;5030944;28;20064;-74
2021/03/19 07:19:14;;;;;;;3.55;3.22;;;7.60;61.20;;;;;;5030719;28;20033;-74
2021/03/19 07:22:23;;;;;;;3.10;2.80;;;7.70;60.50;;;;;;5088191;28;20039;-73
2021/03/19 07:25:01;;;;;;;3.55;3.03;;;7.70;60.20;;;;;;5113260;28;20035;-72
2021/03/19 07:28:04;;;;;;;88.32;52.53;;;7.80;59.80;;;;;;5113217;28;20456;-74
2021/03/19 07:30:35;;;;;;;14.13;9.32;;;7.80;59.30;;;;;;5095387;28;20367;-76
2021/03/19 07:33:37;;;;;;;11.88;7.03;;;7.80;59.70;;;;;;5095260;28;20039;-75
2021/03/19 07:36:33;;;;;;;6.15;5.25;;;7.80;60.00;;;;;;5113116;28;20031;-77
2021/03/19 07:39:33;;;;;;;5.15;4.10;;;7.70;60.00;;;;;;5094997;28;20070;-76
2021/03/19 07:42:34;;;;;;;3.38;3.00;;;7.80;60.50;;;;;;5113005;28;20134;-77
2021/03/19 07:45:07;;;;;;;4.85;2.83;;;8.00;60.00;;;;;;5109230;28;20090;-74
2021/03/19 07:47:54;;;;;;;2.80;2.50;;;8.10;59.50;;;;;;5094854;28;20176;-75
2021/03/19 07:50:48;;;;;;;3.13;2.60;;;8.20;59.40;;;;;;5113402;28;20115;-79
2021/03/19 07:53:35;;;;;;;3.55;3.10;;;8.40;58.10;;;;;;5112766;28;20030;-75
2021/03/19 07:56:24;;;;;;;4.20;2.55;;;8.50;57.90;;;;;;5113262;28;20067;-75
2021/03/19 07:58:56;;;;;;;2.97;2.67;;;8.60;57.80;;;;;;5074348;28;20055;-75
2021/03/19 08:01:44;;;;;;;3.08;2.78;;;8.60;56.60;;;;;;5112819;28;20057;-76
2021/03/19 08:04:25;;;;;;;3.10;2.80;;;8.80;56.20;;;;;;5112864;28;20061;-76
2021/03/19 08:07:01;;;;;;;3.75;3.05;;;8.90;56.20;;;;;;5112938;28;20110;-78
2021/03/19 08:09:42;;;;;;;2.50;2.30;;;8.90;55.50;;;;;;5094712;28;20050;-75
2021/03/19 08:12:21;;;;;;;2.70;2.40;;;9.00;55.60;;;;;;5112438;28;20028;-75
2021/03/19 08:14:53;;;;;;;3.08;2.80;;;9.00;54.90;;;;;;5113140;28;20063;-75
2021/03/19 08:17:41;;;;;;;3.00;2.70;;;9.10;54.90;;;;;;5094551;28;20036;-75
2021/03/19 08:20:13;;;;;;;2.92;2.50;;;9.20;54.90;;;;;;5094526;28;20044;-74
2021/03/19 08:23:02;;;;;;;4.78;2.72;;;9.30;54.10;;;;;;5112587;28;20059;-73
2021/03/19 08:25:36;;;;;;;3.47;2.78;;;9.30;53.90;;;;;;5112391;28;20061;-73
2021/03/19 08:28:13;;;;;;;4.00;3.03;;;9.30;54.10;;;;;;5112266;28;20042;-71
2021/03/19 08:31:09;;;;;;;2.80;2.60;;;9.30;53.80;;;;;;5112641;28;20032;-73
2021/03/19 08:33:58;;;;;;;3.00;2.42;;;9.30;53.90;;;;;;5070768;28;20040;-74
2021/03/19 08:36:30;;;;;;;4.90;2.92;;;9.40;54.30;;;;;;5112430;28;20413;-73
2021/03/19 08:39:06;;;;;;;3.15;2.60;;;9.50;53.40;;;;;;5112613;28;20376;-74
2021/03/19 08:41:53;;;;;;;2.28;2.08;;;9.60;53.10;;;;;;5112203;28;20035;-73
2021/03/19 08:44:23;;;;;;;1.95;1.80;;;9.70;53.10;;;;;;5112709;28;20054;-74
2021/03/19 08:47:07;;;;;;;2.28;2.10;;;9.70;52.70;;;;;;5112144;28;20513;-73
2021/03/19 08:49:42;;;;;;;2.10;1.90;;;9.80;51.90;;;;;;5111794;28;20036;-75
2021/03/19 08:52:29;;;;;;;2.50;2.30;;;9.80;52.50;;;;;;5114024;28;20043;-71
2021/03/19 08:55:21;;;;;;;1.92;1.80;;;9.80;51.80;;;;;;5115886;28;20435;-74
2021/03/19 08:57:55;;;;;;;3.33;2.20;;;9.90;52.20;;;;;;5115836;28;20047;-72
2021/03/19 09:00:21;;;;;;;2.25;1.95;;;10.00;52.10;;;;;;5116246;28;20091;-72
2021/03/19 09:03:02;;;;;;;3.22;1.80;;;10.00;51.30;;;;;;5115703;28;20135;-72
2021/03/19 09:05:57;;;;;;;2.42;2.22;;;10.10;50.50;;;;;;5115646;28;20047;-72
2021/03/19 09:08:26;;;;;;;2.38;2.17;;;10.20;50.70;;;;;;5084224;28;20051;-72
2021/03/19 09:10:52;;;;;;;2.55;2.35;;;10.20;50.70;;;;;;5115443;28;20028;-71
2021/03/19 09:13:21;;;;;;;2.88;2.40;;;10.30;50.50;;;;;;5115669;28;20559;-71
2021/03/19 09:15:49;;;;;;;2.00;1.83;;;10.40;50.20;;;;;;5097870;28;20039;-74
2021/03/19 09:18:44;;;;;;;1.92;1.83;;;10.40;50.50;;;;;;5115411;28;20411;-69
2021/03/19 09:21:50;;;;;;;2.42;2.22;;;10.50;50.00;;;;;;5097431;28;20043;-69
2021/03/19 09:24:22;;;;;;;2.92;2.63;;;10.50;49.40;;;;;;5032496;28;20045;-68
2021/03/19 09:27:33;;;;;;;2.83;2.45;;;10.50;49.40;;;;;;5033046;28;20501;-69
2021/03/19 09:30:21;;;;;;;2.80;2.08;;;10.50;49.50;;;;;;5099732;28;20048;-69
2021/03/19 09:32:50;;;;;;;3.25;2.22;;;10.40;49.60;;;;;;5115316;28;20042;-70
2021/03/19 09:35:42;;;;;;;2.35;2.15;;;10.40;49.40;;;;;;5097488;28;20740;-79
2021/03/19 09:38:31;;;;;;;2.58;2.13;;;10.40;49.50;;;;;;5115786;28;20130;-80
2021/03/19 09:41:07;;;;;;;3.80;2.70;;;10.30;49.60;;;;;;5115541;28;20035;-81
2021/03/19 09:43:50;;;;;;;3.05;2.78;;;10.40;49.70;;;;;;5115336;28;20535;-81
2021/03/19 09:46:28;;;;;;;2.88;2.67;;;10.30;49.30;;;;;;5096806;28;20097;-83
2021/03/19 09:49:03;;;;;;;2.50;2.30;;;10.30;49.00;;;;;;5115411;28;20023;-84
2021/03/19 09:51:31;;;;;;;2.83;2.60;;;10.20;49.00;;;;;;5115421;28;20039;-82
2021/03/19 09:53:57;;;;;;;3.00;2.70;;;10.20;49.50;;;;;;5115264;28;20104;-79
2021/03/19 09:56:27;;;;;;;2.80;2.60;;;10.20;48.70;;;;;;5118759;28;20040;-80
2021/03/19 09:58:57;;;;;;;3.00;2.70;;;10.10;48.70;;;;;;5116468;28;20036;-81
2021/03/19 10:01:41;;;;;;;2.95;2.28;;;10.00;49.20;;;;;;5115280;28;20145;-80
2021/03/19 10:04:11;;;;;;;4.20;2.78;;;10.00;49.60;;;;;;5096624;28;20044;-78
2021/03/19 10:06:46;;;;;;;3.05;2.70;;;10.00;49.20;;;;;;5096854;28;20445;-81
2021/03/19 10:09:24;;;;;;;3.42;2.50;;;9.90;49.20;;;;;;5114775;28;20060;-81
2021/03/19 10:11:52;;;;;;;3.78;2.20;;;9.90;49.40;;;;;;5114562;28;20055;-73
2021/03/19 10:14:26;;;;;;;2.33;2.10;;;10.00;65.50;;;;;;5114642;28;20035;-75
2021/03/19 10:17:07;;;;;;;2.58;2.33;;;10.40;70.50;;;;;;5096708;28;20403;-85
2021/03/19 10:19:38;;;;;;;4.65;2.72;;;10.70;65.30;;;;;;5114749;28;20127;-80
2021/03/19 10:22:06;;;;;;;2.47;2.28;;;10.90;60.60;;;;;;5115121;28;20512;-80
2021/03/19 10:24:32;;;;;;;2.67;2.05;;;10.90;57.80;;;;;;5114381;28;20138;-80
2021/03/19 10:27:10;;;;;;;2.33;1.90;;;10.90;55.80;;;;;;5114368;28;20151;-81
2021/03/19 10:29:38;;;;;;;1.75;1.65;;;10.90;54.20;;;;;;5114493;28;20043;-80
2021/03/19 10:32:13;;;;;;;2.50;2.20;;;10.90;53.90;;;;;;5114283;28;20149;-82
2021/03/19 10:34:45;;;;;;;2.22;2.03;;;10.80;52.40;;;;;;5114580;28;20039;-81
2021/03/19 10:37:24;;;;;;;2.05;1.85;;;10.70;52.20;;;;;;5114310;28;20039;-79
2021/03/19 10:40:04;;;;;;;2.47;2.10;;;10.70;51.60;;;;;;5095966;28;20088;-76
2021/03/19 10:42:44;;;;;;;2.63;2.20;;;10.70;51.60;;;;;;5113921;28;20122;-79
2021/03/19 10:45:37;;;;;;;2.00;1.90;;;10.70;51.10;;;;;;5113537;28;20111;-83
2021/03/19 10:48:21;;;;;;;3.13;2.83;;;10.70;51.10;;;;;;5113733;28;20039;-80
2021/03/19 10:51:02;;;;;;;3.13;2.70;;;10.70;50.70;;;;;;5114861;28;20407;-78
2021/03/19 10:53:47;;;;;;;3.88;2.53;;;10.70;50.50;;;;;;5113726;28;20044;-78
2021/03/19 10:56:14;;;;;;;3.03;2.45;;;10.70;50.30;;;;;;5114215;28;20042;-76
2021/03/19 10:58:49;;;;;;;3.00;2.40;;;10.70;50.20;;;;;;5113508;28;20124;-75
2021/03/19 11:01:36;;;;;;;3.03;2.40;;;10.70;49.90;;;;;;5113612;28;20042;-76
2021/03/19 11:04:27;;;;;;;3.17;2.30;;;10.70;49.50;;;;;;5113366;28;20066;-77
2021/03/19 11:06:54;;;;;;;3.10;2.10;;;10.70;49.20;;;;;;5095166;28;20051;-78
2021/03/19 11:09:24;;;;;;;2.70;2.20;;;10.70;49.30;;;;;;5113597;28;20043;-75
2021/03/19 11:11:58;;;;;;;2.22;2.03;;;10.70;49.00;;;;;;5113308;28;20502;-78
2021/03/19 11:14:28;;;;;;;3.40;2.45;;;10.70;49.00;;;;;;5112971;28;20125;-78
2021/03/19 11:17:13;;;;;;;2.58;2.00;;;10.70;49.20;;;;;;5113521;28;20047;-76
2021/03/19 11:19:58;;;;;;;2.47;2.08;;;10.70;49.00;;;;;;5113180;28;20081;-74
2021/03/19 11:22:34;;;;;;;2.30;2.15;;;10.60;48.70;;;;;;5094878;28;20151;-76
2021/03/19 11:25:34;;;;;;;2.15;1.95;;;10.60;48.50;;;;;;5113336;28;20039;-80
2021/03/19 11:28:01;;;;;;;3.10;2.38;;;10.50;48.70;;;;;;5113081;28;20431;-76
2021/03/19 11:30:37;;;;;;;2.08;1.88;;;10.50;48.60;;;;;;5113364;28;20515;-76
2021/03/19 11:33:07;;;;;;;2.30;1.95;;;10.40;48.30;;;;;;5095480;28;20043;-80
2021/03/19 11:35:35;;;;;;;3.25;2.20;;;10.40;48.40;;;;;;5095167;28;20039;-82
2021/03/19 11:38:01;;;;;;;2.08;1.88;;;10.40;48.50;;;;;;5112930;28;20043;-84
2021/03/19 11:40:42;;;;;;;2.03;1.73;;;10.40;48.30;;;;;;5113429;28;20096;-82
2021/03/19 11:43:10;;;;;;;2.28;2.08;;;10.40;48.20;;;;;;5113922;28;20580;-83
2021/03/19 11:45:40;;;;;;;2.40;2.08;;;10.40;48.20;;;;;;5115603;28;20052;-84
2021/03/19 11:48:19;;;;;;;2.00;1.80;;;10.40;48.00;;;;;;5121328;28;20043;-80
2021/03/19 11:50:49;;;;;;;3.60;2.05;;;10.40;49.00;;;;;;5113195;28;20035;-77
2021/03/19 11:53:20;;;;;;;2.10;1.92;;;10.40;49.00;;;;;;5112939;28;20035;-75
2021/03/19 11:55:51;;;;;;;2.35;1.90;;;10.40;49.00;;;;;;5112643;28;20051;-77
2021/03/19 11:58:20;;;;;;;2.25;2.00;;;10.30;48.90;;;;;;5113222;28;20028;-74
2021/03/19 12:00:46;;;;;;;2.88;2.25;;;10.30;48.90;;;;;;5095109;28;20038;-76
2021/03/19 12:03:35;;;;;;;2.30;2.10;;;10.30;48.60;;;;;;5112855;28;20058;-73
2021/03/19 12:06:02;;;;;;;1.98;1.88;;;10.30;48.60;;;;;;5112429;28;20509;-74
2021/03/19 12:08:30;;;;;;;2.25;2.10;;;10.20;48.50;;;;;;5113084;28;20510;-74
2021/03/19 12:10:57;;;;;;;1.80;1.70;;;10.20;48.40;;;;;;5112812;28;20584;-75
2021/03/19 12:13:23;;;;;;;2.03;1.80;;;10.20;48.00;;;;;;5094765;28;20400;-75
2021/03/19 12:15:50;;;;;;;1.83;1.58;;;10.10;48.10;;;;;;5113015;28;20035;-75
2021/03/19 12:18:19;;;;;;;1.88;1.77;;;10.10;48.00;;;;;;5112712;28;20036;-76
2021/03/19 12:20:45;;;;;;;3.40;2.13;;;10.10;48.00;;;;;;5112845;28;20073;-76
2021/03/19 12:23:11;;;;;;;2.40;1.90;;;10.10;48.10;;;;;;5112695;28;20031;-78
2021/03/19 12:25:39;;;;;;;2.83;2.17;;;10.00;48.00;;;;;;5094140;28;20043;-70
2021/03/19 12:28:10;;;;;;;2.25;2.05;;;10.00;47.90;;;;;;5115493;28;20041;-77
2021/03/19 12:30:37;;;;;;;1.80;1.70;;;10.00;48.30;;;;;;5081371;28;20036;-77
2021/03/19 12:33:04;;;;;;;1.83;1.73;;;9.90;48.00;;;;;;5116543;28;20074;-76
2021/03/19 12:35:30;;;;;;;1.73;1.63;;;9.70;48.70;;;;;;5116304;28;20515;-75
2021/03/19 12:37:58;;;;;;;1.65;1.55;;;9.50;50.20;;;;;;5116547;28;20261;-75
2021/03/19 12:40:26;;;;;;;1.98;1.77;;;9.40;51.50;;;;;;5116306;28;20039;-74
2021/03/19 12:42:52;;;;;;;1.70;1.60;;;9.30;52.20;;;;;;5116287;28;20043;-75
2021/03/19 12:52:47;;;;;;;1.88;1.50;;;9.00;53.60;;;;;;5115952;28;20088;-75
2021/03/19 12:55:14;;;;;;;1.90;1.52;;;9.00;53.00;;;;;;5116025;28;20057;-76
2021/03/19 12:57:40;;;;;;;1.58;1.48;;;9.10;53.50;;;;;;5115574;28;20070;-75
2021/03/19 13:00:06;;;;;;;2.00;1.70;;;9.10;53.20;;;;;;5115833;28;20455;-75
2021/03/19 13:02:32;;;;;;;1.45;1.35;;;9.00;53.50;;;;;;5114987;28;20035;-75
2021/03/19 13:04:58;;;;;;;1.55;1.45;;;9.00;53.40;;;;;;5115865;28;20119;-75
2021/03/19 13:07:25;;;;;;;2.35;1.30;;;9.00;53.00;;;;;;5116031;28;20626;-76
2021/03/19 13:09:51;;;;;;;1.67;1.27;;;8.90;52.70;;;;;;5115463;28;20046;-75
2021/03/19 13:12:17;;;;;;;1.58;1.42;;;8.80;52.80;;;;;;5115618;28;20066;-75
2021/03/19 13:14:44;;;;;;;1.40;1.30;;;8.70;52.80;;;;;;5097423;28;20153;-75
2021/03/19 13:17:10;;;;;;;1.58;1.48;;;8.70;53.10;;;;;;5097089;28;20388;-74
2021/03/19 13:19:36;;;;;;;1.77;1.67;;;8.70;52.70;;;;;;5115731;28;20044;-75
2021/03/19 13:22:02;;;;;;;1.58;1.48;;;8.70;52.50;;;;;;5115419;28;20046;-75
2021/03/19 13:24:28;;;;;;;3.45;1.40;;;8.80;52.60;;;;;;5097275;28;20070;-76
2021/03/19 13:26:54;;;;;;;1.88;1.52;;;8.70;52.70;;;;;;5115652;28;20035;-75
2021/03/19 13:29:20;;;;;;;2.35;1.80;;;8.60;52.90;;;;;;5115627;28;20051;-76
2021/03/19 13:31:46;;;;;;;1.80;1.70;;;8.60;52.60;;;;;;5115199;28;20130;-74
2021/03/19 13:34:13;;;;;;;1.67;1.55;;;8.60;52.60;;;;;;5080229;28;20032;-75
2021/03/19 13:36:39;;;;;;;1.70;1.60;;;8.60;53.00;;;;;;5115328;28;20084;-75
2021/03/19 13:39:07;;;;;;;1.70;1.60;;;8.50;52.90;;;;;;5096306;28;20138;-74